Time;durP1;ratioP1;P1;durP2;ratioP2;P2;SDS_P1;SDS_P2;PMS_P1;PMS_P2;Temp;Humidity;BMP_temperature;BMP_pressure;BME280_temperature;BME280_humidity;BME280_pressure;Samples;Min_cycle;Max_cycle;Signal;HPM_P1;HPM_P2
2022/09/21 00:00:51;;;;;;;6.20;2.83;;;9.70;99.90;;;;;;4993202;28;20294;-59
2022/09/21 00:03:19;;;;;;;3.87;2.27;;;9.70;99.90;;;;;;4993454;28;20226;-59
2022/09/21 00:05:49;;;;;;;3.97;2.20;;;9.70;99.90;;;;;;4993581;28;20242;-59
2022/09/21 00:08:17;;;;;;;6.00;3.47;;;9.70;99.90;;;;;;4993691;28;20825;-59
2022/09/21 00:10:49;;;;;;;7.73;4.37;;;9.60;99.90;;;;;;5001328;28;20333;-59
2022/09/21 00:13:19;;;;;;;10.37;5.23;;;9.60;99.90;;;;;;4997538;28;20281;-59
2022/09/21 00:15:47;;;;;;;7.57;4.87;;;9.60;99.90;;;;;;4995896;28;20234;-58
2022/09/21 00:18:16;;;;;;;8.43;4.13;;;9.60;99.90;;;;;;4993260;28;20234;-59
2022/09/21 00:20:44;;;;;;;5.77;3.40;;;9.60;99.90;;;;;;4993326;28;20233;-59
2022/09/21 00:23:13;;;;;;;8.10;3.03;;;9.50;99.90;;;;;;4993236;28;20222;-59
2022/09/21 00:25:41;;;;;;;3.97;2.40;;;9.50;99.90;;;;;;4993786;28;20685;-59
2022/09/21 00:28:10;;;;;;;3.13;2.10;;;9.50;99.90;;;;;;5013090;28;20253;-59
2022/09/21 00:30:38;;;;;;;4.07;2.20;;;9.50;99.90;;;;;;4995825;28;20319;-59
2022/09/21 00:33:06;;;;;;;4.27;2.10;;;9.50;99.90;;;;;;4999312;28;20748;-59
2022/09/21 00:35:34;;;;;;;7.23;2.70;;;9.50;99.90;;;;;;4996897;28;20233;-59
2022/09/21 00:38:03;;;;;;;4.00;2.30;;;9.40;99.90;;;;;;5012578;28;20246;-59
2022/09/21 00:40:32;;;;;;;4.73;2.00;;;9.40;99.90;;;;;;5008594;28;20216;-59
2022/09/21 00:43:16;;;;;;;4.20;2.67;;;9.40;99.90;;;;;;4999808;28;20258;-59
2022/09/21 00:45:46;;;;;;;5.63;3.70;;;9.40;99.90;;;;;;4999670;28;20650;-59
2022/09/21 00:48:15;;;;;;;4.97;3.57;;;9.30;99.90;;;;;;4997001;28;20750;-59
2022/09/21 00:50:49;;;;;;;6.77;4.40;;;9.30;99.90;;;;;;4996281;28;20218;-59
2022/09/21 00:53:17;;;;;;;7.10;4.70;;;9.30;99.90;;;;;;4996350;28;20238;-59
2022/09/21 00:55:51;;;;;;;6.40;4.77;;;9.30;99.90;;;;;;4996147;28;20233;-59
2022/09/21 00:58:24;;;;;;;6.13;4.20;;;9.30;99.90;;;;;;5003419;28;20229;-59
2022/09/21 01:00:52;;;;;;;5.83;3.43;;;9.20;99.90;;;;;;4995814;28;20292;-59
2022/09/21 01:03:20;;;;;;;6.90;3.17;;;9.20;99.90;;;;;;5007108;28;20253;-60
2022/09/21 01:05:48;;;;;;;3.47;2.40;;;9.20;99.90;;;;;;5015598;28;20229;-58
2022/09/21 01:08:18;;;;;;;2.97;2.00;;;9.20;99.90;;;;;;4998566;28;20590;-59
2022/09/21 01:11:10;;;;;;;5.93;2.40;;;9.20;99.90;;;;;;4998539;28;20238;-59
2022/09/21 01:13:47;;;;;;;4.03;2.33;;;9.20;99.90;;;;;;5002948;28;20224;-59
2022/09/21 01:16:20;;;;;;;4.57;2.30;;;9.20;99.90;;;;;;4976621;28;20230;-59
2022/09/21 01:18:52;;;;;;;3.90;1.83;;;9.10;99.90;;;;;;4976553;28;20564;-59
2022/09/21 01:21:22;;;;;;;5.03;2.00;;;9.10;99.90;;;;;;4976329;28;20215;-59
2022/09/21 01:24:30;;;;;;;4.67;2.20;;;9.10;99.90;;;;;;4976550;28;20226;-59
2022/09/21 01:27:31;;;;;;;2.27;1.97;;;9.10;99.90;;;;;;4978791;28;20591;-58
2022/09/21 01:30:03;;;;;;;3.17;2.10;;;9.00;99.90;;;;;;4972114;28;20244;-58
2022/09/21 01:32:37;;;;;;;5.30;2.03;;;9.00;99.90;;;;;;4994755;28;20614;-59
2022/09/21 01:35:10;;;;;;;2.40;1.80;;;9.00;99.90;;;;;;4995715;28;20230;-59
2022/09/21 01:37:42;;;;;;;3.20;1.83;;;9.00;99.90;;;;;;4994809;28;20245;-59
2022/09/21 01:40:15;;;;;;;4.43;2.03;;;9.00;99.90;;;;;;5005860;28;20245;-59
2022/09/21 01:42:46;;;;;;;4.47;1.60;;;9.00;99.90;;;;;;4999259;28;20221;-59
2022/09/21 01:45:20;;;;;;;2.50;1.83;;;8.90;99.90;;;;;;5000291;28;20230;-58
2022/09/21 01:47:51;;;;;;;2.60;1.50;;;8.90;99.90;;;;;;5014929;28;20229;-59
2022/09/21 01:50:25;;;;;;;4.23;1.90;;;8.90;99.90;;;;;;5014963;28;20233;-59
2022/09/21 01:52:59;;;;;;;2.83;1.73;;;8.90;99.90;;;;;;5014718;28;20245;-59
2022/09/21 01:55:33;;;;;;;2.70;1.60;;;8.90;99.90;;;;;;5014715;28;20237;-58
2022/09/21 01:58:07;;;;;;;3.13;1.70;;;8.90;99.90;;;;;;5012319;28;20233;-58
2022/09/21 02:00:38;;;;;;;2.10;1.47;;;8.80;99.90;;;;;;4994508;28;20234;-59
2022/09/21 02:03:13;;;;;;;2.63;1.80;;;8.80;99.90;;;;;;4994932;28;20239;-59
2022/09/21 02:05:42;;;;;;;3.10;1.53;;;8.80;99.90;;;;;;4994790;28;20233;-59
2022/09/21 02:08:11;;;;;;;4.20;1.73;;;8.70;99.90;;;;;;5009858;28;20631;-59
2022/09/21 02:10:44;;;;;;;3.53;1.80;;;8.70;99.90;;;;;;5001812;28;20230;-58
2022/09/21 02:13:15;;;;;;;4.57;1.83;;;8.70;99.90;;;;;;4995372;28;20248;-59
2022/09/21 02:16:05;;;;;;;4.07;1.70;;;8.70;99.90;;;;;;4998191;28;20316;-59
2022/09/21 02:18:43;;;;;;;3.13;1.57;;;8.70;99.90;;;;;;4994901;28;20273;-59
2022/09/21 02:21:21;;;;;;;3.30;1.70;;;8.60;99.90;;;;;;5006524;28;20221;-58
2022/09/21 02:23:56;;;;;;;2.80;1.40;;;8.70;99.90;;;;;;5014683;28;20232;-59
2022/09/21 02:26:30;;;;;;;4.10;2.03;;;8.60;99.90;;;;;;5014348;28;20263;-58
2022/09/21 02:29:10;;;;;;;3.37;1.47;;;8.60;99.90;;;;;;5010397;28;20294;-58
2022/09/21 02:31:47;;;;;;;2.77;1.80;;;8.60;99.90;;;;;;4994428;28;20241;-59
2022/09/21 02:34:22;;;;;;;4.60;1.40;;;8.60;99.90;;;;;;5014083;28;20693;-59
2022/09/21 02:36:55;;;;;;;4.10;1.80;;;8.60;99.90;;;;;;5014053;28;20569;-59
2022/09/21 02:39:32;;;;;;;4.93;1.60;;;8.50;99.90;;;;;;5009505;28;20234;-58
2022/09/21 02:42:07;;;;;;;4.00;1.50;;;8.50;99.90;;;;;;5002305;28;20230;-59
2022/09/21 02:44:40;;;;;;;2.47;1.97;;;8.60;99.90;;;;;;5002184;28;20221;-58
2022/09/21 02:47:15;;;;;;;4.27;1.77;;;8.60;99.90;;;;;;4994863;28;20625;-59
2022/09/21 02:49:50;;;;;;;5.23;1.80;;;8.60;99.90;;;;;;4993868;28;20225;-59
2022/09/21 02:52:19;;;;;;;2.43;1.80;;;8.60;99.90;;;;;;4993814;28;20245;-58
2022/09/21 02:54:50;;;;;;;2.70;2.03;;;8.50;99.90;;;;;;5002524;28;20229;-59
2022/09/21 02:57:21;;;;;;;2.10;1.67;;;8.50;99.90;;;;;;5013878;28;20237;-58
2022/09/21 02:59:51;;;;;;;2.00;1.50;;;8.50;99.90;;;;;;4996720;28;20690;-59
2022/09/21 03:02:20;;;;;;;6.80;1.90;;;8.50;99.90;;;;;;4993403;28;20234;-58
2022/09/21 03:04:49;;;;;;;2.87;1.43;;;8.50;99.90;;;;;;4993598;28;20261;-59
2022/09/21 03:07:17;;;;;;;3.33;1.60;;;8.40;99.90;;;;;;4994074;28;20586;-59
2022/09/21 03:09:45;;;;;;;4.57;1.97;;;8.40;99.90;;;;;;4995955;28;20315;-59
2022/09/21 03:12:13;;;;;;;3.63;1.67;;;8.40;99.90;;;;;;5005017;28;20229;-58
2022/09/21 03:14:42;;;;;;;2.03;1.70;;;8.40;99.90;;;;;;5001327;28;20230;-59
2022/09/21 03:17:10;;;;;;;3.37;1.60;;;8.40;99.90;;;;;;4993995;28;20230;-59
2022/09/21 03:19:39;;;;;;;3.17;1.67;;;8.40;99.90;;;;;;4994210;28;20709;-59
2022/09/21 03:22:07;;;;;;;3.63;1.87;;;8.30;99.90;;;;;;5013238;28;20222;-59
2022/09/21 03:24:48;;;;;;;3.20;1.63;;;8.30;99.90;;;;;;5013023;28;20307;-59
2022/09/21 03:27:17;;;;;;;3.70;1.90;;;8.30;99.90;;;;;;5012888;28;20257;-59
2022/09/21 03:29:45;;;;;;;3.90;1.57;;;8.30;99.90;;;;;;4996378;28;20245;-59
2022/09/21 03:32:14;;;;;;;3.20;1.73;;;8.20;99.90;;;;;;4993175;28;20229;-59
2022/09/21 03:34:43;;;;;;;2.63;1.90;;;8.20;99.90;;;;;;4993708;28;20225;-59
2022/09/21 03:37:11;;;;;;;2.40;1.40;;;8.20;99.90;;;;;;4993561;28;20226;-58
2022/09/21 03:39:39;;;;;;;4.47;1.80;;;8.20;99.90;;;;;;4993473;28;20237;-59
2022/09/21 03:42:08;;;;;;;5.43;1.70;;;8.20;99.90;;;;;;5001450;28;20264;-58
2022/09/21 03:44:37;;;;;;;4.43;1.87;;;8.20;99.90;;;;;;5001369;28;20221;-59
2022/09/21 03:47:06;;;;;;;5.63;1.80;;;8.20;99.90;;;;;;4993648;28;20226;-58
2022/09/21 03:49:34;;;;;;;2.67;1.63;;;8.20;99.90;;;;;;4993437;28;20234;-58
2022/09/21 03:52:04;;;;;;;2.67;1.93;;;8.20;99.90;;;;;;4973895;28;20227;-59
2022/09/21 03:54:32;;;;;;;2.43;1.70;;;8.10;99.90;;;;;;4973961;28;20234;-58
2022/09/21 03:57:00;;;;;;;4.00;1.80;;;8.10;99.90;;;;;;4977001;28;20230;-58
2022/09/21 03:59:28;;;;;;;2.67;1.87;;;8.10;99.90;;;;;;4998531;28;20234;-58
2022/09/21 04:01:56;;;;;;;3.40;1.70;;;8.10;99.90;;;;;;4995403;28;20237;-59
2022/09/21 04:04:24;;;;;;;3.13;1.90;;;8.10;99.90;;;;;;4997162;28;20277;-59
2022/09/21 04:06:52;;;;;;;2.93;1.83;;;8.00;99.90;;;;;;4997192;28;20567;-58
2022/09/21 04:09:22;;;;;;;5.63;1.90;;;8.00;99.90;;;;;;4996961;28;20234;-58
2022/09/21 04:11:51;;;;;;;4.53;2.13;;;8.00;99.90;;;;;;5004664;28;20233;-59
2022/09/21 04:14:19;;;;;;;2.67;1.60;;;8.00;99.90;;;;;;5005041;28;20233;-59
2022/09/21 04:16:47;;;;;;;1.97;1.63;;;8.00;99.90;;;;;;4997008;28;20682;-58
2022/09/21 04:19:15;;;;;;;3.10;1.93;;;7.90;99.90;;;;;;4996877;28;20625;-58
2022/09/21 04:21:43;;;;;;;2.80;1.67;;;7.90;99.90;;;;;;5005154;28;20594;-58
2022/09/21 04:24:11;;;;;;;8.10;1.80;;;7.90;99.90;;;;;;4997023;28;20305;-59
2022/09/21 04:26:41;;;;;;;3.17;1.90;;;7.90;99.90;;;;;;4996690;28;20260;-58
2022/09/21 04:29:09;;;;;;;2.30;1.63;;;7.90;99.90;;;;;;5003862;28;20267;-58
2022/09/21 04:31:38;;;;;;;2.87;1.70;;;7.90;99.90;;;;;;4996171;28;20234;-58
2022/09/21 04:34:06;;;;;;;4.13;2.00;;;7.90;99.90;;;;;;5005052;28;20233;-58
2022/09/21 04:36:34;;;;;;;2.87;1.77;;;7.90;99.90;;;;;;5016206;28;20272;-58
2022/09/21 04:39:04;;;;;;;3.93;1.60;;;7.90;99.90;;;;;;5014277;28;20693;-58
2022/09/21 04:41:32;;;;;;;4.00;1.80;;;7.90;99.90;;;;;;5004354;28;20240;-59
2022/09/21 04:44:02;;;;;;;3.70;1.80;;;7.90;99.90;;;;;;5004568;28;20229;-59
2022/09/21 04:46:30;;;;;;;3.53;2.00;;;7.90;99.90;;;;;;4996446;28;20233;-58
2022/09/21 04:48:58;;;;;;;3.60;2.20;;;7.90;99.90;;;;;;4996290;28;20245;-59
2022/09/21 04:51:26;;;;;;;5.93;2.10;;;7.90;99.90;;;;;;4995064;28;20230;-58
2022/09/21 04:53:54;;;;;;;4.03;2.37;;;7.80;99.90;;;;;;4995899;28;20227;-58
2022/09/21 04:56:22;;;;;;;2.87;1.80;;;7.90;99.90;;;;;;4996348;28;20594;-59
2022/09/21 04:58:50;;;;;;;3.67;1.87;;;7.90;99.90;;;;;;4996314;28;20276;-59
2022/09/21 05:01:20;;;;;;;5.27;2.30;;;7.80;99.90;;;;;;4995584;28;20245;-59
2022/09/21 05:03:48;;;;;;;3.87;2.00;;;7.80;99.90;;;;;;4993424;28;20230;-58
2022/09/21 05:06:16;;;;;;;2.73;1.73;;;7.80;99.90;;;;;;5005830;28;20719;-58
2022/09/21 05:11:29;;;;;;;4.30;1.87;;;7.70;99.90;;;;;;4990569;28;20222;-58
2022/09/21 05:13:57;;;;;;;3.03;2.00;;;7.70;99.90;;;;;;4996326;28;20245;-59
2022/09/21 05:16:27;;;;;;;4.77;2.10;;;7.70;99.90;;;;;;4995463;28;20222;-58
2022/09/21 05:18:55;;;;;;;3.70;1.67;;;7.70;99.90;;;;;;4996088;28;20233;-58
2022/09/21 05:21:23;;;;;;;3.57;1.90;;;7.70;99.90;;;;;;4995782;28;20248;-59
2022/09/21 05:23:51;;;;;;;3.33;2.00;;;7.80;99.90;;;;;;4995746;28;20237;-59
2022/09/21 05:26:19;;;;;;;3.73;1.90;;;7.80;99.90;;;;;;4995562;28;20229;-58
2022/09/21 05:28:48;;;;;;;2.47;1.70;;;7.70;99.90;;;;;;5005481;28;20241;-58
2022/09/21 05:31:32;;;;;;;2.77;1.80;;;7.80;99.90;;;;;;5014734;28;20241;-58
2022/09/21 05:34:11;;;;;;;3.30;1.90;;;7.80;99.90;;;;;;5014791;28;20280;-58
2022/09/21 05:36:48;;;;;;;3.00;1.87;;;7.90;99.90;;;;;;5014828;28;20217;-59
2022/09/21 05:39:16;;;;;;;3.30;1.80;;;7.90;99.90;;;;;;5011486;28;20300;-59
2022/09/21 05:41:45;;;;;;;5.33;1.97;;;8.00;99.90;;;;;;5003374;28;20237;-58
2022/09/21 05:44:14;;;;;;;3.40;2.23;;;8.00;99.90;;;;;;5001600;28;20265;-59
2022/09/21 05:46:49;;;;;;;4.60;2.23;;;8.00;99.90;;;;;;5002253;28;20228;-58
2022/09/21 05:49:32;;;;;;;3.03;2.10;;;8.10;99.90;;;;;;5011071;28;20292;-59
2022/09/21 05:52:08;;;;;;;5.17;2.63;;;8.20;99.90;;;;;;5015056;28;20275;-59
2022/09/21 05:54:49;;;;;;;6.17;2.83;;;8.30;99.90;;;;;;5014568;28;20696;-58
2022/09/21 05:57:25;;;;;;;5.53;2.53;;;8.30;99.90;;;;;;5014824;28;20271;-59
2022/09/21 06:00:07;;;;;;;3.93;2.60;;;8.40;99.90;;;;;;5011957;28;20253;-58
2022/09/21 06:03:10;;;;;;;5.03;2.80;;;8.50;99.90;;;;;;5003254;28;20237;-59
2022/09/21 06:05:44;;;;;;;4.23;2.83;;;8.60;99.90;;;;;;4975891;28;20285;-58
2022/09/21 06:08:12;;;;;;;7.30;2.77;;;8.70;99.90;;;;;;4975522;28;20590;-58
2022/09/21 06:10:41;;;;;;;3.20;2.30;;;8.80;99.90;;;;;;4997544;28;20628;-59
2022/09/21 06:13:09;;;;;;;6.43;2.97;;;8.90;99.90;;;;;;4992134;28;20237;-58
2022/09/21 06:15:37;;;;;;;4.70;2.80;;;9.00;99.90;;;;;;5003212;28;20261;-58
2022/09/21 06:18:07;;;;;;;5.07;3.23;;;9.10;99.90;;;;;;4997450;28;20218;-58
2022/09/21 06:20:36;;;;;;;3.80;3.30;;;9.20;99.90;;;;;;4995082;28;20752;-59
2022/09/21 06:23:05;;;;;;;4.07;3.67;;;9.30;99.90;;;;;;4994984;28;20693;-58
2022/09/21 06:25:33;;;;;;;8.07;5.17;;;9.40;99.90;;;;;;4994873;28;20230;-59
2022/09/21 06:28:03;;;;;;;9.07;5.00;;;9.50;99.90;;;;;;4995307;28;20242;-59
2022/09/21 06:30:33;;;;;;;8.80;5.23;;;9.60;99.90;;;;;;4995056;28;20237;-58
2022/09/21 06:33:02;;;;;;;6.03;4.97;;;9.70;99.90;;;;;;5012923;28;20316;-59
2022/09/21 06:35:33;;;;;;;8.23;5.20;;;9.90;99.90;;;;;;5013841;28;20226;-59
2022/09/21 06:38:03;;;;;;;6.67;4.70;;;10.00;99.90;;;;;;5015342;28;20232;-59
2022/09/21 06:40:34;;;;;;;10.70;4.80;;;10.20;99.90;;;;;;5007632;28;20235;-59
2022/09/21 06:43:04;;;;;;;6.57;4.47;;;10.40;99.90;;;;;;4997267;28;20232;-59
2022/09/21 06:45:33;;;;;;;7.70;4.17;;;10.60;99.90;;;;;;5001901;28;20230;-60
2022/09/21 06:48:01;;;;;;;8.00;4.50;;;10.80;99.90;;;;;;5006111;28;20237;-58
2022/09/21 06:50:29;;;;;;;9.10;4.33;;;10.90;99.90;;;;;;5009496;28;20225;-58
2022/09/21 06:53:01;;;;;;;8.47;5.23;;;11.10;99.90;;;;;;5000555;28;20251;-58
2022/09/21 06:55:29;;;;;;;8.03;4.90;;;11.30;99.90;;;;;;4996382;28;20237;-59
2022/09/21 06:58:04;;;;;;;9.93;4.70;;;11.40;99.90;;;;;;4994479;28;20226;-58
2022/09/21 07:00:32;;;;;;;10.27;4.83;;;11.60;99.90;;;;;;4992293;28;20653;-58
2022/09/21 07:03:00;;;;;;;7.50;4.40;;;11.80;99.90;;;;;;4997429;28;20234;-59
2022/09/21 07:05:28;;;;;;;9.27;4.70;;;12.00;99.90;;;;;;5000489;28;20233;-59
2022/09/21 07:07:58;;;;;;;6.57;4.20;;;12.20;99.90;;;;;;4993952;28;20234;-59
2022/09/21 07:10:27;;;;;;;6.73;4.80;;;12.40;99.90;;;;;;4994329;28;20245;-59
2022/09/21 07:12:55;;;;;;;7.47;4.30;;;12.50;99.90;;;;;;4995355;28;20231;-59
2022/09/21 07:15:29;;;;;;;4.87;3.83;;;12.70;99.90;;;;;;4994103;28;20239;-59
2022/09/21 07:17:57;;;;;;;6.23;4.37;;;12.90;99.90;;;;;;4994460;28;20234;-59
2022/09/21 07:20:33;;;;;;;5.83;3.97;;;13.10;99.90;;;;;;4993452;28;20254;-58
2022/09/21 07:23:01;;;;;;;6.70;4.17;;;13.30;99.90;;;;;;4995748;28;20233;-59
2022/09/21 07:25:30;;;;;;;9.40;4.57;;;13.50;99.90;;;;;;4996136;28;20224;-59
2022/09/21 07:28:00;;;;;;;7.30;4.30;;;13.70;99.90;;;;;;4995575;28;20240;-59
2022/09/21 07:30:28;;;;;;;10.30;3.63;;;13.90;99.90;;;;;;5002788;28;20608;-58
2022/09/21 07:32:57;;;;;;;6.93;3.73;;;14.10;99.90;;;;;;4997369;28;20244;-59
2022/09/21 07:35:25;;;;;;;7.80;4.13;;;14.20;99.90;;;;;;4994296;28;20237;-57
2022/09/21 07:37:55;;;;;;;5.33;3.70;;;14.30;99.90;;;;;;4997674;28;20232;-59
2022/09/21 07:40:23;;;;;;;6.80;4.00;;;14.50;99.90;;;;;;4998413;28;20719;-58
2022/09/21 07:42:57;;;;;;;6.50;3.70;;;14.70;99.90;;;;;;4997744;28;20232;-59
2022/09/21 07:45:25;;;;;;;5.17;3.40;;;14.80;99.90;;;;;;4997533;28;20224;-59
2022/09/21 07:47:55;;;;;;;5.73;3.43;;;15.10;99.90;;;;;;4998353;28;20236;-59
2022/09/21 07:50:23;;;;;;;6.13;3.20;;;15.30;99.90;;;;;;4998032;28;20696;-60
2022/09/21 07:52:51;;;;;;;8.87;3.90;;;15.50;99.90;;;;;;4997901;28;20237;-60
2022/09/21 07:55:19;;;;;;;6.17;3.20;;;15.70;99.90;;;;;;4997527;28;20237;-59
2022/09/21 08:00:37;;;;;;;5.47;3.17;;;16.00;99.90;;;;;;4996235;28;20237;-60
2022/09/21 08:03:06;;;;;;;5.17;4.07;;;16.20;99.90;;;;;;5000100;28;20295;-59
2022/09/21 08:05:34;;;;;;;6.80;3.97;;;16.40;99.90;;;;;;4999157;28;20632;-60
2022/09/21 08:08:02;;;;;;;6.00;3.50;;;16.60;99.90;;;;;;4999226;28;20240;-59
2022/09/21 08:10:31;;;;;;;4.90;3.53;;;16.80;99.90;;;;;;5003041;28;20261;-60
2022/09/21 08:12:59;;;;;;;7.67;3.73;;;16.90;99.90;;;;;;4999210;28;20785;-59
2022/09/21 08:15:27;;;;;;;5.00;3.63;;;17.10;99.90;;;;;;4997666;28;20253;-59
2022/09/21 08:18:17;;;;;;;5.80;3.17;;;17.20;99.90;;;;;;4996540;28;20258;-59
2022/09/21 08:20:54;;;;;;;4.57;3.57;;;17.40;99.90;;;;;;5002673;28;20284;-60
2022/09/21 08:23:22;;;;;;;3.77;2.60;;;17.60;99.90;;;;;;5001137;28;20633;-60
2022/09/21 08:25:50;;;;;;;6.90;3.30;;;17.80;99.90;;;;;;4998530;28;20219;-61
2022/09/21 08:28:18;;;;;;;6.77;3.60;;;18.00;99.90;;;;;;5005555;28;20709;-60
2022/09/21 08:30:46;;;;;;;6.60;3.17;;;18.20;99.90;;;;;;5003669;28;20278;-60
2022/09/21 08:33:16;;;;;;;8.20;3.53;;;18.30;99.90;;;;;;5002071;28;20305;-60
2022/09/21 08:35:51;;;;;;;7.53;3.87;;;18.50;99.90;;;;;;5001644;28;20261;-60
2022/09/21 08:38:19;;;;;;;6.87;3.40;;;18.60;99.90;;;;;;5014871;28;20247;-60
2022/09/21 08:40:48;;;;;;;7.83;3.53;;;18.80;99.90;;;;;;4999960;28;20231;-60
2022/09/21 08:43:20;;;;;;;9.90;3.70;;;18.90;99.90;;;;;;4999769;28;20233;-60
2022/09/21 08:45:48;;;;;;;4.90;3.00;;;19.10;99.90;;;;;;4997441;28;20226;-60
2022/09/21 08:48:23;;;;;;;6.20;3.10;;;19.20;99.90;;;;;;4998206;28;20282;-60
2022/09/21 08:51:00;;;;;;;7.23;3.20;;;19.40;99.90;;;;;;4997732;28;20238;-60
2022/09/21 08:53:33;;;;;;;5.90;2.50;;;19.60;99.90;;;;;;4998210;28;20239;-60
2022/09/21 08:56:02;;;;;;;3.50;2.07;;;19.70;99.90;;;;;;4997738;28;20240;-61
2022/09/21 08:58:32;;;;;;;6.03;2.37;;;19.80;99.90;;;;;;4997680;28;20265;-60
2022/09/21 09:01:15;;;;;;;6.00;2.20;;;20.00;99.90;;;;;;4996926;28;20248;-61
2022/09/21 09:03:59;;;;;;;4.67;2.07;;;20.10;99.90;;;;;;4998676;28;20710;-61
2022/09/21 09:06:39;;;;;;;4.03;1.80;;;20.30;99.90;;;;;;5002953;28;20223;-61
2022/09/21 09:09:17;;;;;;;5.33;1.87;;;20.40;99.90;;;;;;4999929;28;20224;-61
2022/09/21 09:11:59;;;;;;;4.43;2.10;;;20.60;99.90;;;;;;4999575;28;20243;-61
2022/09/21 09:14:53;;;;;;;3.73;2.17;;;20.70;99.90;;;;;;4994027;28;20232;-61
2022/09/21 09:17:32;;;;;;;4.10;2.10;;;20.40;99.90;;;;;;4997445;28;20233;-60
2022/09/21 09:20:07;;;;;;;4.13;1.60;;;20.30;99.90;;;;;;4998005;28;20708;-60
2022/09/21 09:22:40;;;;;;;3.83;1.50;;;20.40;99.90;;;;;;4998799;28;20234;-60
2022/09/21 09:25:18;;;;;;;5.87;1.70;;;20.70;99.90;;;;;;4998067;28;20700;-60
2022/09/21 09:27:48;;;;;;;3.53;1.57;;;21.00;99.90;;;;;;4997638;28;20369;-61
2022/09/21 09:30:19;;;;;;;3.93;1.70;;;21.20;99.90;;;;;;5015666;28;20231;-60
2022/09/21 09:32:54;;;;;;;4.57;1.60;;;21.40;99.90;;;;;;5000518;28;20703;-61
2022/09/21 09:35:27;;;;;;;5.57;1.77;;;21.50;99.90;;;;;;5008488;28;20223;-61
2022/09/21 09:38:02;;;;;;;6.07;2.03;;;21.70;99.90;;;;;;5005303;28;20243;-61
2022/09/21 09:40:48;;;;;;;5.33;1.80;;;21.90;99.90;;;;;;5000533;28;20755;-61
2022/09/21 09:43:32;;;;;;;4.47;1.60;;;21.80;99.90;;;;;;4999157;28;20224;-60
2022/09/21 09:46:12;;;;;;;3.83;1.30;;;22.10;99.90;;;;;;5001151;28;20229;-61
2022/09/21 09:48:55;;;;;;;3.53;1.40;;;22.20;99.90;;;;;;5003171;28;20229;-61
2022/09/21 09:51:26;;;;;;;2.93;1.30;;;22.40;99.90;;;;;;5003727;28;20961;-61
2022/09/21 09:53:59;;;;;;;3.70;1.20;;;22.60;99.90;;;;;;5000640;28;20235;-62
2022/09/21 09:56:27;;;;;;;5.97;1.70;;;22.70;99.90;;;;;;5000332;28;20234;-61
2022/09/21 09:58:59;;;;;;;5.00;1.90;;;22.80;99.90;;;;;;5000754;28;20233;-61
2022/09/21 10:01:39;;;;;;;4.17;1.20;;;22.80;99.90;;;;;;5001012;28;20243;-60
2022/09/21 10:04:10;;;;;;;3.83;1.53;;;22.90;99.90;;;;;;5004406;28;20617;-61
2022/09/21 10:06:41;;;;;;;3.60;1.20;;;23.10;99.90;;;;;;5003344;28;20272;-61
2022/09/21 10:09:25;;;;;;;5.80;0.93;;;23.20;99.90;;;;;;5004407;28;20301;-61
2022/09/21 10:11:56;;;;;;;3.33;1.27;;;23.30;99.90;;;;;;5004386;28;20570;-61
2022/09/21 10:14:28;;;;;;;6.23;1.17;;;23.40;99.90;;;;;;5004284;28;20222;-61
2022/09/21 10:17:00;;;;;;;3.53;1.03;;;23.30;99.90;;;;;;5003226;28;20241;-62
2022/09/21 10:19:28;;;;;;;2.73;0.90;;;22.90;99.90;;;;;;5002559;28;20233;-61
2022/09/21 10:22:00;;;;;;;2.23;0.90;;;22.20;99.90;;;;;;5005254;28;20237;-62
2022/09/21 10:24:32;;;;;;;2.70;0.83;;;21.50;99.90;;;;;;4997827;28;20225;-61
2022/09/21 10:27:06;;;;;;;3.70;1.10;;;21.00;99.90;;;;;;5003154;28;20232;-61
2022/09/21 10:29:42;;;;;;;2.07;0.80;;;20.70;99.90;;;;;;5006934;28;20236;-61
2022/09/21 10:32:22;;;;;;;1.83;0.70;;;20.60;99.90;;;;;;4993603;28;20238;-61
2022/09/21 10:35:16;;;;;;;4.03;0.90;;;20.30;99.90;;;;;;5004600;28;20238;-61
2022/09/21 10:37:49;;;;;;;3.63;0.93;;;19.90;99.90;;;;;;5000485;28;20225;-61
2022/09/21 10:40:26;;;;;;;3.80;0.90;;;19.60;99.90;;;;;;4997760;28;20305;-61
2022/09/21 10:42:57;;;;;;;2.20;0.80;;;19.50;99.90;;;;;;5005269;28;20227;-61
2022/09/21 10:45:27;;;;;;;2.47;0.87;;;19.40;99.90;;;;;;4997634;28;20296;-61
2022/09/21 10:47:57;;;;;;;2.93;1.33;;;19.40;99.90;;;;;;5004750;28;20283;-61
2022/09/21 10:50:28;;;;;;;3.23;0.93;;;19.40;99.90;;;;;;4997510;28;20428;-61
2022/09/21 10:53:01;;;;;;;2.73;0.90;;;19.60;99.90;;;;;;4999950;28;20300;-61
2022/09/21 10:55:31;;;;;;;2.37;0.97;;;20.00;99.90;;;;;;5004047;28;20231;-61
2022/09/21 10:57:59;;;;;;;2.50;1.10;;;20.30;99.90;;;;;;5003293;28;20236;-62
2022/09/21 11:00:37;;;;;;;2.40;0.80;;;20.20;99.90;;;;;;4999705;28;20702;-62
2022/09/21 11:03:38;;;;;;;3.57;0.93;;;20.00;99.90;;;;;;5008830;28;20701;-61
2022/09/21 11:06:11;;;;;;;2.20;1.00;;;19.80;99.90;;;;;;5004121;28;20247;-61
2022/09/21 11:08:47;;;;;;;2.70;1.10;;;19.60;99.90;;;;;;5007715;28;20229;-60
2022/09/21 11:11:32;;;;;;;1.90;0.80;;;19.50;99.90;;;;;;5003760;28;20693;-61
2022/09/21 11:14:10;;;;;;;1.93;0.80;;;19.70;99.90;;;;;;5004062;28;20636;-61
2022/09/21 11:16:43;;;;;;;3.83;0.97;;;20.10;99.90;;;;;;5003479;28;20224;-61
2022/09/21 11:19:20;;;;;;;1.83;0.80;;;20.00;99.90;;;;;;5004009;28;20286;-61
2022/09/21 11:22:04;;;;;;;1.73;0.80;;;19.80;99.90;;;;;;5004019;28;20236;-61
2022/09/21 11:24:41;;;;;;;2.17;0.90;;;19.60;99.90;;;;;;5005607;28;20253;-61
2022/09/21 11:27:15;;;;;;;3.43;1.00;;;19.40;99.90;;;;;;5003160;28;20267;-61
2022/09/21 11:29:53;;;;;;;2.93;0.87;;;19.50;99.90;;;;;;5005992;28;20237;-61
2022/09/21 11:32:40;;;;;;;2.07;0.80;;;20.00;99.90;;;;;;5001527;28;20241;-62
2022/09/21 11:35:26;;;;;;;2.90;0.93;;;20.30;99.90;;;;;;4999901;28;20228;-61
2022/09/21 11:38:04;;;;;;;1.67;1.00;;;20.70;99.90;;;;;;4993618;28;20234;-61
2022/09/21 11:40:54;;;;;;;1.63;0.70;;;21.20;99.90;;;;;;5001442;28;20247;-61
2022/09/21 11:43:44;;;;;;;3.03;1.00;;;21.60;99.90;;;;;;5001931;28;20222;-61
2022/09/21 11:46:22;;;;;;;1.63;0.60;;;21.50;99.90;;;;;;5002004;28;20221;-61
2022/09/21 11:49:12;;;;;;;2.00;0.90;;;21.30;99.90;;;;;;5002421;28;20297;-61
2022/09/21 11:51:52;;;;;;;2.07;0.80;;;21.20;99.90;;;;;;5002003;28;20237;-61
2022/09/21 11:54:57;;;;;;;2.83;0.83;;;20.90;99.90;;;;;;5002546;28;20232;-60
2022/09/21 11:57:29;;;;;;;3.37;0.80;;;20.50;99.90;;;;;;5001534;28;20245;-60
2022/09/21 12:00:14;;;;;;;1.83;0.80;;;20.50;99.90;;;;;;5001364;28;20229;-61
2022/09/21 12:03:27;;;;;;;1.57;0.70;;;20.50;99.90;;;;;;4999754;28;20242;-61
2022/09/21 12:06:16;;;;;;;1.83;0.70;;;20.60;99.90;;;;;;5002122;28;20571;-60
2022/09/21 12:09:19;;;;;;;2.07;0.80;;;20.60;99.90;;;;;;5002632;28;20230;-61
2022/09/21 12:11:56;;;;;;;2.10;0.73;;;20.80;99.90;;;;;;5001235;28;21654;-61
2022/09/21 12:14:35;;;;;;;3.03;0.80;;;20.80;99.90;;;;;;5004091;28;20244;-61
2022/09/21 12:17:16;;;;;;;2.33;0.87;;;20.90;99.90;;;;;;5004282;28;20244;-61
2022/09/21 12:19:49;;;;;;;4.33;1.33;;;20.80;99.90;;;;;;5003076;28;20229;-61
2022/09/21 12:22:22;;;;;;;2.23;0.60;;;21.00;99.90;;;;;;5004406;28;20233;-61
2022/09/21 12:24:52;;;;;;;1.70;0.60;;;21.00;99.90;;;;;;5006618;28;20237;-62
2022/09/21 12:27:27;;;;;;;1.60;0.60;;;21.00;99.90;;;;;;5006446;28;20245;-61
2022/09/21 12:30:01;;;;;;;2.07;0.90;;;20.80;99.90;;;;;;5021839;28;20236;-60
2022/09/21 12:32:46;;;;;;;4.17;0.80;;;20.60;99.90;;;;;;5030830;28;20227;-61
2022/09/21 12:35:17;;;;;;;1.67;0.70;;;20.40;99.90;;;;;;5015791;28;20234;-61
2022/09/21 12:37:49;;;;;;;1.63;0.80;;;20.10;99.90;;;;;;5013039;28;20272;-61
2022/09/21 12:40:26;;;;;;;1.53;0.70;;;20.00;99.90;;;;;;5009350;28;20248;-61
2022/09/21 12:43:01;;;;;;;2.23;0.80;;;19.80;99.90;;;;;;5023581;28;20229;-60
2022/09/21 12:45:35;;;;;;;2.33;0.63;;;19.80;99.90;;;;;;5011144;28;20250;-60
2022/09/21 12:48:09;;;;;;;2.23;0.63;;;19.60;99.90;;;;;;5012344;28;20289;-60
2022/09/21 12:50:42;;;;;;;3.17;0.93;;;19.50;99.90;;;;;;5021533;28;20224;-60
2022/09/21 12:53:17;;;;;;;1.90;0.70;;;19.50;99.90;;;;;;5013098;28;20240;-60
2022/09/21 12:55:53;;;;;;;1.93;0.57;;;19.60;99.90;;;;;;5016016;28;20237;-59
2022/09/21 12:58:42;;;;;;;2.60;0.60;;;19.70;99.90;;;;;;5012700;28;20235;-61
2022/09/21 13:01:25;;;;;;;2.40;0.60;;;19.70;99.90;;;;;;5016365;28;20232;-61
2022/09/21 13:04:03;;;;;;;1.67;0.80;;;19.70;99.90;;;;;;5021023;28;20229;-61
2022/09/21 13:06:54;;;;;;;1.90;0.70;;;19.70;99.90;;;;;;5014137;28;20228;-61
2022/09/21 13:09:23;;;;;;;1.87;0.67;;;19.60;99.90;;;;;;5010852;28;20233;-61
2022/09/21 13:11:55;;;;;;;1.57;0.60;;;19.50;99.90;;;;;;5024544;28;20259;-60
2022/09/21 13:14:25;;;;;;;2.57;0.80;;;19.50;99.90;;;;;;5019483;28;20222;-60
2022/09/21 13:17:01;;;;;;;0.60;0.50;;;19.40;99.90;;;;;;5018160;28;20264;-60
2022/09/21 13:19:31;;;;;;;2.20;0.60;;;19.30;99.90;;;;;;5014755;28;20227;-60
2022/09/21 13:22:19;;;;;;;1.90;0.50;;;19.30;99.90;;;;;;5021183;28;20237;-61
2022/09/21 13:25:01;;;;;;;1.70;0.70;;;19.30;99.90;;;;;;5023631;28;20246;-60
2022/09/21 13:28:08;;;;;;;1.50;0.60;;;19.20;99.90;;;;;;5021158;28;20228;-60
2022/09/21 13:30:39;;;;;;;1.13;0.50;;;19.20;99.90;;;;;;5019208;28;20308;-60